Observations for FAIRFORD RAF, United Kingdom (EGVA)

EGVA 242029Z AUTO 25011KT 2600 RA BKN004 OVC010 12/11 A2974 RMK AO2 SLP075 $
EGVA 242034Z AUTO 26022G29KT 2000 -RA BKN004 OVC010 12/11 A2974 RMK AO2 SLP075 $
EGVA 242039Z AUTO 27023G29KT 8000 -DZ SCT004 OVC010 12/11 A2974 RMK AO2 RAE38DZB38 CIG 009 RWY09 SLP075 $
EGVA 242040Z AUTO 27020G29KT 9000 M SCT004 OVC010 12/11 A2974 RMK AO2 RAE38DZB38E40 CIG 009 RWY09 SLP075 $
EGVA 242005Z AUTO 23013G22KT 2200 -RA BR OVC006 12/11 A2973 RMK AO2 VIS 9000V9999 CIG 007V013 SLP072 $
EGVA 242010Z AUTO 23012G22KT 1400 R27/0800VP1500 -RA BR OVC006 12/11 A2973 RMK AO2 VIS 9000V9999 CIG 006V013 SLP072 $
EGVA 242012Z AUTO 24008KT 9999 -RA BKN006 OVC011 12/11 A2974 RMK AO2 VIS 1200 RWY27 CIG 006V011 SLP075 $
EGVA 242013Z AUTO 23013KT 1400 R27/0800VP1500 -RA OVC006 12/11 A2974 RMK AO2 VIS 9000V9999 CIG 006V011 SLP075 $
EGVA 242014Z AUTO 24012KT 2000 -RA OVC006 12/11 A2974 RMK AO2 VIS 9000V9999 CIG006V011 OVC V SCT SLP075 $
EGVA 242019Z AUTO 25010KT 2200 RA OVC005 12/11 A2974 RMK AO2 VIS 9000V9999 CIG 006V011 SLP075 $

EGVA 242001Z AUTO 22016G22KT 4400 -RA OVC008 12/11 A2973 RMK AO2 CIG 007V015 SLP072 $
EGVA 241956Z AUTO 22015G21KT 5000 -RA OVC008 12/11 A2973 RMK AO2 CIG 007V015 CIG 007 RWY09 SLP072 P0001 T01190108 $ 
EGVA 241926Z AUTO 22015KT 9000 -RA SCT011 OVC020 12/11 A2973 RMK AO2 CIG 019 RWY09 SLP072 $
EGVA 241931Z AUTO 23013KT 8000 -RA BKN011 OVC020 12/11 A2973 RMK AO2 SLP072 $
EGVA 241906Z AUTO 22013KT 9000 -RA FEW008 BKN018 OVC028 12/11 A2973 RMK AO2 CIG016V024 SLP072 $
EGVA 241916Z AUTO 22014KT 3200 -RA FEW008 SCT014 BKN018 OVC028 12/11 A2973 RMK AO2 SLP072 $
EGVA 241921Z AUTO 22013KT 8000 -RA SCT011 BKN018 OVC027 12/11 A2972 RMK AO2 SLP068 $
EGVA 241901Z AUTO 22014KT 4400 -RA FEW008 SCT014 BKN018 OVC030 12/11 A2973 RMK AO2 CIG 015V020 BKN V OVC CIG 016 RWY09 SLP072 $
EGVA 241946Z AUTO 23013KT 8000 -RA BKN008 OVC013 12/11 A2973 RMK AO2 CIG 015V017 SLP072 $
EGVA 241951Z AUTO 23014KT 4400 -RA BKN008 OVC013 12/11 A2973 RMK AO2 SLP072 $
EGVA 241856Z AUTO 22013KT 8000 -RA SCT010 BKN018 OVC030 12/11 A2974 RMK AO2 RAB03E37DZB37E42RAB42 CIG 014V020 BKN V OVC SLP075 P0002 T01240111 $
EGVA 241826Z AUTO 23010KT 1400 R27/0750VP1500 -RA BKN010 OVC016 13/11 A2975 RMKAO2 RAB03 CIG 014V019 SLP078 $
EGVA 241829Z AUTO 22011KT 1800 -RA OVC011 13/11 A2974 RMK AO2 RAB03 CIG 012V019SLP075 $
EGVA 241834Z AUTO 22011KT 3600 -RA BKN010 OVC015 13/11 A2974 RMK AO2 RAB03 CIG 012V015 SLP075 $
EGVA 241839Z AUTO 22011KT 4000 -DZ OVC012 13/11 A2974 RMK AO2 RAB03E37DZB37 SLP075 $
EGVA 241844Z AUTO 22012G18KT 5000 -RA BKN012 OVC018 12/11 A2974 RMK AO2 RAB03E37DZB37E42RAB42 SLP075 $
EGVA 241813Z AUTO 23014G21KT 8000 -RA BKN012 BKN024 OVC029 13/11 A2975 RMK AO2 RAB03 SLP078 $
EGVA 241818Z AUTO 22013G21KT 4000 -RA SCT009 BKN012 BKN024 OVC029 13/11 A2975 RMK AO2 RAB03 CIG 014V019 SLP078 $
EGVA 241823Z AUTO 23010KT 3600 -RA SCT009 BKN016 OVC024 13/11 A2975 RMK AO2 RAB03 CIG 014V019 CIG 014 RWY09 SLP078 $
EGVA 241801Z AUTO 22014G20KT 4000 M FEW013 SCT024 BKN029 BKN038 OVC045 13/12 A2975 RMK AO2 CIG 027V047 CIG 027 RWY09 SLP078 $
EGVA 241803Z AUTO 22013G20KT 5000 -RA SCT017 BKN026 OVC037 13/12 A2975 RMK AO2 RAB03 CIG 021V047 CIG 021 RWY09 SLP078 $
EGVA 241756Z AUTO 21014KT 5000 M FEW014 SCT024 BKN029 BKN038 OVC047 13/12 A2975 RMK AO2 RAE25 SLP078 P0001 60003 T01310115 10141 20128 57022 $  
EGVA 241725Z AUTO 23013KT 1400 R27/1000VP1500 M SCT009 BKN024 BKN050 BKN110 13/12 A2976 RMK AO2 RAE25 CIG 010V020 CIG 020 RWY09 SLP082 $
EGVA 241730Z AUTO 23013KT 2600 M SCT009 SCT024 BKN050 BKN110 13/12 A2976 RMK AO2 RAE25 SLP082 $
EGVA 241735Z AUTO 22014KT 3000 M FEW010 FEW024 BKN048 BKN055 BKN085 13/12 A2976RMK AO2 RAE25 SLP082 $
EGVA 241740Z AUTO 22013KT 3200 M FEW025 SCT038 BKN046 BKN055 13/12 A2976 RMK AO2 RAE25 SLP082 $
EGVA 241706Z AUTO 23012KT 3000 -RA OVC008 13/12 A2977 RMK AO2 VIS 9000V9999 CIG008V015 OVC V SCT SLP085 $
EGVA 241711Z AUTO 23011KT 2600 -RA OVC008 13/12 A2977 RMK AO2 CIG 008V010 SLP085 $
EGVA 241716Z AUTO 23016G20KT 1600 R27/0900VP1500 -RA BKN009 OVC023 13/12 A2977 RMK AO2 CIG 008V010 SLP085 $
EGVA 241717Z AUTO 22015G20KT 1800 -RA BKN009 OVC023 13/12 A2977 RMK AO2 CIG 008V010 SLP085 $
EGVA 241719Z AUTO 23014G20KT 1600 R27/1000VP1500 -RA BKN009 BKN024 OVC049 13/12A2977 RMK AO2 SLP085 $
EGVA 241724Z AUTO 23012KT 1400 R27/1000VP1500 -RA BKN009 BKN024 BKN050 BKN110 13/12 A2977 RMK AO2 CIG 010V020 SLP085 $
EGVA 241745Z AUTO 22013KT 6000 M FEW023 FEW031 BKN040 BKN050 13/12 A2975 RMK AO2 RAE25 SLP078 $
EGVA 241656Z AUTO 23011KT 6000 -RA BR BKN008 OVC012 13/12 A2978 RMK AO2 PK WND 22026/03 RAB13 CIG 008V015 BKN V SCT SLP088 P0002 T01290116 $
EGVA 241628Z AUTO 23014KT 3000 -RA OVC010 13/12 A2978 RMK AO2 RAB13 OVC V BKN SLP088 RVRNO $
EGVA 241633Z AUTO 23018G20KT 3000 -RA OVC010 13/12 A2977 RMK AO2 RAB13 SLP085 RVRNO $
EGVA 241638Z AUTO 23014G20KT 5000 -RA BKN009 OVC019 13/12 A2978 RMK AO2 RAB13 SLP088 $
EGVA 241611Z AUTO 21017G24KT 9999 OVC010 13/11 A2978 RMK AO2 SLP088 RVRNO $
EGVA 241613Z AUTO 21017G24KT 9999 -RA OVC010 13/11 A2978 RMK AO2 RAB13 SLP088 RVRNO $
EGVA 241618Z AUTO 21015G24KT 2800 -RA OVC010 14/11 A2978 RMK AO2 RAB13 SLP088 RVRNO $
EGVA 241556Z AUTO 21017G24KT 9999 OVC010 13/11 A2978 RMK AO2 PK WND 21026/53 DZB14E25 SLP088 P0000 T01340113 RVRNO $
EGVA 241525Z AUTO 20017G25KT 9999 OVC011 13/12 A2980 RMK AO2 DZB14E25 SLP095 RVRNO $
EGVA 241514Z AUTO 21014G21KT 6000 -DZ OVC011 13/11 A2980 RMK AO2 DZB14 PRESFR SLP095 RVRNO $
EGVA 241456Z AUTO 21016G25KT 9999 OVC011 13/11 A2982 RMK AO2 PK WND 22027/00 DZB09E19 SLP102 P0000 60000 T01310112 57031 $  
EGVA 241409Z AUTO 21018G27KT 1600 R27/0650VP1500 -DZ OVC012 13/11 A2983 RMK AO2DZB09 SLP105 $
EGVA 241411Z AUTO 22016G27KT 1800 -DZ OVC012 13/11 A2983 RMK AO2 DZB09 SLP105 $
EGVA 241416Z AUTO 20017G22KT 9999 -DZ OVC012 13/11 A2983 RMK AO2 DZB09 SLP105 $
EGVA 241419Z AUTO 20012G22KT 9999 OVC012 13/11 A2983 RMK AO2 DZB09E19 SLP105 $
EGVA 241401Z AUTO 22020G27KT 2200 M OVC013 13/11 A2984 RMK AO2 VIS 2000V5000 SLP108 $
EGVA 241356Z AUTO 21019G24KT 2600 M OVC013 13/11 A2984 RMK AO2 VIS 2600V9000 RAE20DZB20E21 SLP108 P0000 T01330113 $ 
EGVA 241327Z AUTO 21017G20KT 3000 M BKN013 OVC019 13/11 A2986 RMK AO2 VIS 3000V9999 RAE20DZB20E21 CIG 013V019 BKN V SCT SLP115 $
EGVA 241337Z AUTO 21017G23KT 8000 M OVC012 13/12 A2985 RMK AO2 RAE20DZB20E21 SLP112 $
EGVA 241311Z AUTO 19013G19KT 9999 -RA BKN018 OVC026 13/11 A2986 RMK AO2 VIS 2800 RWY27 CIG 018V023 BKN V FEW PRESFR SLP115 $
EGVA 241321Z AUTO 20014G19KT 9999 -DZ BKN013 OVC019 13/11 A2986 RMK AO2 RAE20DZB20 CIG 013V019 BKN V SCT CIG 011 RWY27 SLP115 $
EGVA 241322Z AUTO 20013KT 9999 BKN013 OVC019 13/11 A2986 RMK AO2 RAE20DZB20E21 CIG 013V019 BKN V SCT CIG 011 RWY27 SLP115 $
EGVA 241256Z AUTO 20013KT 9999 -RA OVC023 13/10 A2988 RMK AO2 RAB36E47DZB47E48DZB52E53RAB53 OVC V BKN CIG 022 RWY27 SLP122 P0000 T01340096 $
EGVA 241236Z AUTO 20009KT 9999 -RA BKN030 OVC036 14/09 A2989 RMK AO2 RAB36 SLP125 $
EGVA 241248Z AUTO 20010KT 9999 OVC027 13/09 A2988 RMK AO2 RAB36E47DZB47E48 CIG 025V030 OVC V BKN SLP122 $
EGVA 241252Z AUTO 20012KT 9999 -DZ OVC025 13/09 A2988 RMK AO2 RAB36E47DZB47E48DZB52 OVC V BKN SLP122 $
EGVA 241156Z AUTO 19007KT 9999 OVC046 14/08 A2991 RMK AO2 SLP132 60000 T01360082 10136 20115 $  
EGVA 241134Z AUTO 23008KT 1800 HZ OVC050 13/08 A2993 RMK AO2 VIS 1800V3000 SLP139 $
EGVA 241135Z AUTO 23007KT 1600 R27/0800VP1500 HZ OVC050 13/08 A2993 RMK AO2 VIS1600V3000 SLP139 $
EGVA 241136Z AUTO 23007KT 1800 HZ OVC050 13/08 A2993 RMK AO2 VIS 1600V3000 SLP139 $
EGVA 241137Z AUTO 23007KT 1600 R27/0800VP1500 HZ OVC050 13/08 A2993 RMK AO2 VIS1600V3000 SLP139 $
EGVA 241138Z AUTO 23007KT 1800 HZ OVC050 13/08 A2993 RMK AO2 VIS 1600V3000 SLP139 $
EGVA 241143Z AUTO 22006KT 2000 HZ OVC050 13/08 A2992 RMK AO2 VIS 1600V2400 SLP136 $
EGVA 241106Z AUTO 20010KT 3600 HZ OVC050 13/09 A2994 RMK AO2 VIS 3600V6000 SLP142 $
EGVA 241111Z AUTO 21012KT 5000 HZ OVC050 13/09 A2993 RMK AO2 SLP139 $
EGVA 241121Z AUTO 22009KT 1400 R27/0800VP1500 HZ OVC055 13/08 A2993 RMK AO2 VIS1400V5000 SLP139 $
EGVA 241124Z AUTO 22009KT 2600 HZ OVC050 13/08 A2993 RMK AO2 VIS 1200V5000 SLP139 $
EGVA 241145Z AUTO 22006KT 1600 R27/0550VP1500 HZ OVC050 13/08 A2992 RMK AO2 VIS1600V2400 SLP136 $
EGVA 241148Z AUTO 21004KT 2800 HZ OVC050 13/08 A2992 RMK AO2 VIS 1400V2800 SLP136 $
EGVA 241153Z AUTO 21007KT 8000 HZ OVC048 14/08 A2991 RMK AO2 SLP132 $
EGVA 241056Z AUTO 21011KT 5000 HZ OVC050 13/08 A2994 RMK AO2 SLP142 T01270084 $ 
EGVA 241025Z AUTO 22011KT 3600 HZ FEW016 OVC055 12/09 A2996 RMK AO2 VIS 3600V9000 SLP150 $
EGVA 241040Z AUTO 23007KT 2800 HZ FEW016 OVC050 12/09 A2995 RMK AO2 VIS 1800V3600 SLP146 $
EGVA 241007Z AUTO 23008KT 1600 R27/0600VP1500 HZ FEW043 OVC055 12/08 A2996 RMK AO2 VIS 1600V5000 SLP150 $
EGVA 241010Z AUTO 23007KT 3000 HZ FEW043 OVC055 12/08 A2996 RMK AO2 VIS 1600V3000 SLP150 $
EGVA 241015Z AUTO 22011KT 8000 HZ FEW041 OVC055 12/08 A2996 RMK AO2 SLP150 $
EGVA 241001Z AUTO 23008KT 3600 HZ OVC055 12/08 A2996 RMK AO2 VIS 3600V5000 SLP150 $
EGVA 241003Z AUTO 22007KT 2600 HZ FEW043 OVC055 12/08 A2996 RMK AO2 VIS 2600V5000 SLP150 $
EGVA 241045Z AUTO 22010KT 6000 HZ FEW016 OVC050 12/08 A2995 RMK AO2 SLP146 $
EGVA 240956Z AUTO 24009KT 4400 HZ OVC055 12/08 A2997 RMK AO2 VIS 1400V4400 SLP153 T01160081 $   
EGVA 240940Z AUTO 23006KT 1800 HZ OVC055 11/08 A2996 RMK AO2 VIS 1800V8000 SLP150 $
EGVA 240906Z AUTO 25007KT 3200 HZ OVC055 11/08 A2996 RMK AO2 VIS 3200V8000 SLP150 $
EGVA 240909Z AUTO 24008KT 1200 R27/0650VP1500 HZ OVC055 11/08 A2997 RMK AO2 VIS1200V6000 SLP153 $
EGVA 240914Z AUTO 24008KT 1200 R27/0900VP1500 HZ OVC055 11/08 A2997 RMK AO2 VIS1000V5000 SLP153 $
EGVA 240915Z AUTO 24008KT 2800 HZ OVC055 11/08 A2997 RMK AO2 VIS 1000V3200 SLP153 $
EGVA 240920Z AUTO 25006KT 6000 HZ OVC055 11/08 A2997 RMK AO2 SLP153 $
EGVA 240945Z AUTO 24007KT 2000 HZ OVC055 11/08 A2996 RMK AO2 VIS 1800V5000 SLP150 $
EGVA 240946Z AUTO 24007KT 1600 R27/1000VP1500 HZ OVC055 11/08 A2996 RMK AO2 VIS1600V5000 SLP150 $
EGVA 240948Z AUTO 24006KT 1800 HZ OVC055 11/08 A2996 RMK AO2 VIS 1600V3000 SLP150 $
EGVA 240950Z AUTO 23008KT 1400 R27/0800VP1500 HZ OVC055 12/08 A2997 RMK AO2 VIS1400V2200 SLP153 $
EGVA 240951Z AUTO 23008KT 2600 HZ OVC055 12/08 A2997 RMK AO2 VIS 1400V2600 SLP153 $
EGVA 240856Z AUTO 25010KT 6000 HZ OVC055 11/08 A2997 RMK AO2 DZE0759DZB11E12RAB12E24 SLP153 P0000 60000 T01100084 58001 $   
EGVA 240828Z AUTO 25009KT 1800 BR OVC055 11/08 A2998 RMK AO2 VIS 1600V5000 DZE0759DZB11E12RAB12E24 SLP156 $
EGVA 240833Z AUTO 25008KT 8000 HZ OVC060 11/08 A2997 RMK AO2 DZE0759DZB11E12RAB12E24 SLP153 $
EGVA 240805Z AUTO 25013G18KT 4400 BR OVC065 11/08 A2998 RMK AO2 VIS 1400V4400 DZE0759 SLP156 $
EGVA 240810Z AUTO 25010KT 3200 HZ OVC065 11/08 A2998 RMK AO2 VIS 2600V5000 DZE0759 SLP156 $
EGVA 240811Z AUTO 25013KT 5000 -DZ OVC060 11/08 A2998 RMK AO2 DZE0759DZB11 SLP156 $
EGVA 240821Z AUTO 25010KT 3200 -RA BR OVC060 11/08 A2998 RMK AO2 VIS 3200V6000 DZE0759DZB11E12RAB12 SLP156 $
EGVA 240822Z AUTO 25010KT 1600 R27/0600VP1500 -RA BR OVC060 11/08 A2998 RMK AO2VIS 1600V6000 DZE0759DZB11E12RAB12 SLP156 $
EGVA 240823Z AUTO 25009KT 1800 -RA BR OVC060 11/08 A2998 RMK AO2 VIS 1600V6000 DZE0759DZB11E12RAB12 SLP156 $

EGVA 240800Z AUTO 25013G18KT 2600 BR OVC065 10/08 A2998 RMK AO2 VIS 1400V3600 DZE0759 SLP156 $
EGVA 240756Z AUTO 25011KT 3200 -DZ BR OVC070 10/08 A2998 RMK AO2 VIS 2600V3600 RAB20E33DZB33E34DZB47 SLP156 P0000 T01040082 $   
EGVA 240725Z AUTO 24012KT 2600 -RA FEW012 BKN080 BKN090 10/08 A2998 RMK AO2 VIS2400V3200 RAB20 SLP157 $
EGVA 240734Z AUTO 24011KT 5000 BR FEW012 BKN075 10/08 A2998 RMK AO2 RAB20E33DZB33E34 SLP156 $
EGVA 240706Z AUTO 25013KT 1000 R27/0750VP1500 HZ FEW014 SCT075 OVC090 10/08 A2998 RMK AO2 VIS 1000V2800 SLP156 $
EGVA 240713Z AUTO 25010KT 1800 HZ FEW014 SCT075 BKN090 10/08 A2998 RMK AO2 VIS 1000V1800 SLP156 $
EGVA 240718Z AUTO 25014KT 2400 HZ FEW012 SCT075 BKN090 10/08 A2998 RMK AO2 VIS 1000V2400 SLP156 $
EGVA 240720Z AUTO 25014KT 3200 -RA FEW012 SCT080 BKN090 10/08 A2998 RMK AO2 VIS1200V3200 RAB20 SLP156 $
EGVA 240701Z AUTO 25011KT 1200 R27/0750VP1500 BR FEW075 OVC095 10/08 A2998 RMK AO2 VIS 1200V6000 SLP156 $
EGVA 240747Z AUTO 24013KT 2600 -DZ BR BKN070 OVC080 10/08 A2998 RMK AO2 VIS 2600V8000 RAB20E33DZB33E34DZB47 SLP156 $
EGVA 240752Z AUTO 25013KT 3200 -DZ BR OVC070 10/08 A2998 RMK AO2 VIS 2600V5000 RAB20E33DZB33E34DZB47 SLP156 $
EGVA 240759Z AUTO 25011KT 1400 R27/0800VP1500 -DZ BR OVC070 10/08 A2998 RMK AO2VIS 1400V3600 SLP156 $
EGVA 240656Z AUTO 25012KT 4000 BR FEW075 OVC095 10/08 A2997 RMK AO2 VIS 4000V6000 SLP153 T01010079 $
EGVA 240625Z AUTO 26012KT 1800 BR OVC100 10/08 A2998 RMK AO2 VIS 0600V5000 SLP156 $
EGVA 240630Z AUTO 25011KT 4000 BR OVC100 10/08 A2998 RMK AO2 VIS 0600V4000 SLP156 $
EGVA 240635Z AUTO 25011KT 6000 BR OVC100 10/08 A2998 RMK AO2 SLP156 $
EGVA 240640Z AUTO 24011KT 4000 BR OVC095 10/08 A2998 RMK AO2 VIS 4000V6000 SLP156 $
EGVA 240606Z AUTO 25012KT 4400 BR OVC100 10/08 A2997 RMK AO2 VIS 2000V4400 SLP153 $
EGVA 240611Z AUTO 26013KT 6000 BR OVC100 10/08 A2997 RMK AO2 SLP153 $
EGVA 240621Z AUTO 25012KT 2000 BR OVC100 10/08 A2997 RMK AO2 VIS 2000V6000 SLP153 $
EGVA 240622Z AUTO 25012KT 1600 R27/0600VP1500 BR OVC100 10/08 A2997 RMK AO2 VIS1600V6000 SLP153 $
EGVA 240601Z AUTO 26011KT 2400 BR OVC100 10/08 A2997 RMK AO2 VIS 1400V2400 SLP153 $
EGVA 240645Z AUTO 24009KT 3200 BR OVC095 10/08 A2997 RMK AO2 VIS 2200V5000 SLP153 $
EGVA 240650Z AUTO 25010KT 5000 BR OVC095 10/08 A2998 RMK AO2 SLP156 $
EGVA 240655Z AUTO 25012KT 4000 BR FEW075 OVC095 10/08 A2997 RMK AO2 VIS 3200V6000 SLP153 $
EGVA 240556Z AUTO 26011KT 2200 BR OVC100 10/08 A2997 RMK AO2 VIS 1000V4000 SLP153 60000 T00990080 10107 20098 50006 $   
EGVA 240525Z AUTO 26012KT 1600 R27/1100VP1500 BR OVC110 10/08 A2996 RMK AO2 VIS1600V4400 SLP150 $
EGVA 240530Z AUTO 26012KT 1000 R27/0900VP1500 BR OVC110 10/08 A2996 RMK AO2 VIS1000V4000 SLP150 $
EGVA 240535Z AUTO 26013KT 2000 BR OVC110 10/08 A2996 RMK AO2 VIS 1000V2000 SLP150 $
EGVA 240540Z AUTO 26011KT 6000 BR OVC110 10/08 A2997 RMK AO2 SLP153 $
EGVA 240506Z AUTO 26012KT 5000 BR SCT010 BKN110 10/08 A2995 RMK AO2 SLP146 $
EGVA 240511Z AUTO 27011KT 3000 BR FEW010 BKN110 10/08 A2996 RMK AO2 VIS 2800V5000 SLP150 $
EGVA 240516Z AUTO 26012KT 4400 BR FEW010 BKN110 10/08 A2995 RMK AO2 VIS 2800V5000 SLP146 $
EGVA 240521Z AUTO 26013KT 4000 BR FEW011 OVC110 10/08 A2996 RMK AO2 VIS 4000V5000 SLP150 $
EGVA 240501Z AUTO 25014KT 4400 BR SCT009 BKN110 BKN130 10/08 A2995 RMK AO2 VIS 2400V4400 SLP146 $
EGVA 240549Z AUTO 26012KT 1600 R27/0900VP1500 BR OVC100 10/08 A2996 RMK AO2 VIS1600V6000 SLP150 $
EGVA 240553Z AUTO 26011KT 2000 BR OVC100 10/08 A2997 RMK AO2 VIS 1000V6000 SLP153 $
EGVA 240456Z AUTO 26012KT 2400 BR SCT009 BKN110 BKN130 10/08 A2995 RMK AO2 VIS 2400V3600 SLP146 T00980082 $ 
EGVA 240433Z AUTO 25012KT 3200 BR BKN130 BKN180 10/08 A2995 RMK AO2 VIS 2400V9000 SLP146 $
EGVA 240438Z AUTO 25011KT 5000 BR FEW009 BKN130 OVC180 10/08 A2995 RMK AO2 SLP146 $
EGVA 240443Z AUTO 25012KT 3600 BR SCT009 BKN120 OVC180 10/08 A2995 RMK AO2 VIS 3600V5000 SLP146 $
EGVA 240406Z AUTO 26012KT 5000 BR FEW011 SCT120 BKN170 10/08 A2995 RMK AO2 SLP146 $
EGVA 240411Z AUTO 26012KT 2200 BR FEW011 SCT120 BKN170 10/08 A2995 RMK AO2 VIS 2200V6000 SLP146 $
EGVA 240412Z AUTO 26013KT 1600 R27/0900VP1500 BR FEW011 BKN120 BKN170 10/08 A2995 RMK AO2 VIS 1600V6000 SLP146 $
EGVA 240413Z AUTO 26014KT 2200 BR FEW011 BKN120 BKN170 10/08 A2995 RMK AO2 VIS 1600V6000 SLP146 $
EGVA 240418Z AUTO 26013KT 6000 BR BKN120 BKN170 10/08 A2995 RMK AO2 SLP146 $
EGVA 240356Z AUTO 26012KT 3200 BR BKN011 BKN180 10/08 A2995 RMK AO2 VIS 1800V3200 SLP146 T01020083 $
EGVA 240328Z AUTO 26016KT 3600 BR OVC011 11/09 A2996 RMK AO2 VIS 1800V3600 SLP149 $
EGVA 240333Z AUTO 26013KT 4400 BR OVC011 11/09 A2996 RMK AO2 VIS 2200V4400 SLP149 $
EGVA 240338Z AUTO 26015KT 2400 BR OVC011 10/09 A2996 RMK AO2 VIS 2400V4400 SLP149 $
EGVA 240340Z AUTO 26014KT 1600 R27/0650VP1500 BR OVC011 10/09 A2995 RMK AO2 VIS1600V4400 SLP146 $
EGVA 240341Z AUTO 26013KT 1800 BR OVC011 10/09 A2995 RMK AO2 VIS 1600V4400 SLP146 $
EGVA 240306Z AUTO 26015KT 3200 BR OVC011 11/09 A2995 RMK AO2 VIS 3200V8000 SLP146 $
EGVA 240307Z AUTO 25013KT 1600 R27/0600VP1500 BR OVC011 11/09 A2995 RMK AO2 VIS1600V8000 SLP146 $
EGVA 240317Z AUTO 25015KT 1600 R27/0600VP1500 BR OVC011 11/09 A2996 RMK AO2 SLP149 $
EGVA 240318Z AUTO 25015KT 1800 BR OVC011 11/09 A2995 RMK AO2 VIS 1000V1800 SLP146 $
EGVA 240323Z AUTO 25014KT 2200 BR OVC011 11/09 A2996 RMK AO2 VIS 1000V2200 SLP149 $
EGVA 240346Z AUTO 26013KT 2200 BR BKN011 10/08 A2995 RMK AO2 VIS 1600V3200 BKN V OVC SLP146 $
EGVA 240256Z AUTO 26015KT 8000 BR OVC011 11/09 A2995 RMK AO2 SLP146 60000 T01060087 55002 $ 
EGVA 240206Z AUTO 26013KT 5000 BR OVC011 11/09 A2996 RMK AO2 OVC V BKN SLP149 $
EGVA 240211Z AUTO 26013KT 4000 BR OVC011 11/09 A2995 RMK AO2 VIS 2800V5000 SLP146 $
EGVA 240216Z AUTO 27013KT 3200 BR OVC011 11/09 A2996 RMK AO2 VIS 2800V4400 SLP149 $
EGVA 240221Z AUTO 27012G19KT 8000 BR OVC011 11/09 A2996 RMK AO2 SLP149 $
EGVA 240201Z AUTO 27013G22KT 4400 BR OVC011 11/09 A2995 RMK AO2 VIS 4400V9999 OVC V BKN SLP146 $
EGVA 240246Z AUTO 26012KT 2800 BR OVC011 11/09 A2996 RMK AO2 VIS 2800V9999 SLP149 $
EGVA 240251Z AUTO 26013KT 4000 BR OVC011 11/09 A2996 RMK AO2 VIS 2800V6000 SLP149 $
EGVA 240156Z AUTO 26013G22KT 9000 BR BKN012 11/09 A2995 RMK AO2 SLP146 T01070088 $  
EGVA 240126Z AUTO 25015G22KT 8000 BR BKN014 OVC020 11/09 A2994 RMK AO2 SLP142 $
EGVA 240136Z AUTO 26012KT 6000 BR SCT014 BKN020 11/09 A2995 RMK AO2 CIG 014V020SLP146 $
EGVA 240141Z AUTO 26012G18KT 3600 BR BKN014 11/09 A2995 RMK AO2 VIS 3600V6000 CIG 014V020 BKN V SCT CIG 013 RWY09 SLP146 $
EGVA 240106Z AUTO 26016G22KT 6000 BR FEW008 OVC015 11/09 A2995 RMK AO2 SLP146 $
EGVA 240101Z AUTO 26014G21KT 1800 BR SCT008 OVC015 11/10 A2995 RMK AO2 VIS 1600V2400 CIG 008V015 SLP145 $
EGVA 240146Z AUTO 27014G18KT 4400 BR BKN012 11/09 A2995 RMK AO2 VIS 3600V6000 SLP146 $
EGVA 240151Z AUTO 27016G20KT 9000 BR BKN012 11/09 A2995 RMK AO2 SLP146 $
EGVA 240056Z AUTO 26017G28KT 2000 BR SCT008 OVC015 11/10 A2995 RMK AO2 PK WND 25028/46 VIS 2000V5000 DZB35E45 CIG 008V015 CIG 010 RWY09 SLP145 P0000 T01070095 $
EGVA 240028Z AUTO 25012KT 1800 BR OVC008 11/10 A2995 RMK AO2 VIS 1600V5000 SLP146 $
EGVA 240033Z AUTO 24012KT 5000 BR OVC008 11/10 A2995 RMK AO2 SLP146 $
EGVA 240035Z AUTO 25013KT 6000 -DZ BR OVC008 11/10 A2995 RMK AO2 DZB35 SLP146 $
EGVA 240017Z AUTO 25012KT 6000 BR OVC008 11/10 A2996 RMK AO2 SLP149 $
EGVA 240022Z AUTO 25012KT 3200 BR OVC008 11/10 A2996 RMK AO2 VIS 2200V9999 SLP149 $
EGVA 240024Z AUTO 25013KT 1600 R27/0700VP1500 BR OVC008 11/10 A2996 RMK AO2 VIS1600V9000 SLP149 $
EGVA 240002Z AUTO 25012KT 8000 BR OVC007 11/10 A2996 RMK AO2 SLP149 $
EGVA 240045Z AUTO 25018G24KT 4400 -DZ BR BKN008 OVC013 11/10 A2995 RMK AO2 VIS 4000V8000 DZB35E45 BKN V OVC SLP145 $
EGVA 240046Z AUTO 25019G28KT 4400 BR BKN008 OVC013 11/10 A2995 RMK AO2 VIS 4000V8000 DZB35E45 BKN V OVC SLP145 $
EGVA 240051Z AUTO 25015G28KT 2600 BR BKN008 OVC015 11/10 A2995 RMK AO2 VIS 2400V6000 DZB35E45 BKN V OVC SLP145 $
EGVA 240058Z AUTO 26015G25KT 1600 R27/0600VP1500 BR SCT008 OVC015 11/10 A2995 RMK AO2 VIS 1600V4400 CIG 008V015 CIG 010 RWY09 SLP145 $
EGVA 232356Z AUTO 25012KT 1400 R27/0750VP1500 BR OVC006 11/10 A2996 RMK AO2 VIS 1000V5000 DZB40E51 SLP149 P0000 60000 T01060097 10121 20104 401440066 57006 $   
EGVA 232326Z AUTO 25015G22KT 6000 BR OVC007 11/09 A2996 RMK AO2 OVC V BKN SLP149 $
EGVA 232337Z AUTO 25014G21KT 8000 BR OVC006 11/10 A2996 RMK AO2 SLP149 $
EGVA 232340Z AUTO 25016KT 8000 -DZ BR OVC006 11/10 A2996 RMK AO2 DZB40 SLP149 $
EGVA 232306Z AUTO 24012KT 5000 BR BKN007 BKN011 OVC016 11/09 A2996 RMK AO2 CIG 007V010 SLP149 $
EGVA 232316Z AUTO 24014KT 3600 BR BKN007 OVC013 11/09 A2995 RMK AO2 VIS 3600V8000 SLP146 $
EGVA 232321Z AUTO 24013KT 4400 BR OVC007 11/09 A2996 RMK AO2 VIS 3600V6000 OVC V BKN SLP149 $
EGVA 232350Z AUTO 25012KT 3000 -DZ BR OVC006 11/10 A2996 RMK AO2 VIS 3000V9000 DZB40 SLP149 $
EGVA 232351Z AUTO 25012KT 1000 R27/0750VP1500 -DZ BR OVC006 11/10 A2996 RMK AO2VIS 1000V8000 DZB40E51 SLP149 $
EGVA 232352Z AUTO 25012KT 1000 R27/0750VP1500 BR OVC006 11/10 A2996 RMK AO2 VIS1000V8000 DZB40E51 SLP149 $
EGVA 232357Z AUTO 25012KT 3000 BR OVC006 11/10 A2996 RMK AO2 VIS 1000V5000 SLP149 $
EGVA 232256Z AUTO 24013KT 6000 BR BKN010 OVC017 10/09 A2996 RMK AO2 CIG 010V017 SLP150 T01040090 $  
EGVA 232226Z AUTO 25017G20KT 3200 HZ BKN012 OVC017 11/08 A2997 RMK AO2 VIS 3200V9000 SLP153 $
EGVA 232229Z AUTO 25016KT 1000 R27/0600V1400 BR BKN012 OVC017 11/09 A2997 RMK AO2 VIS 0800V8000 SLP153 $
EGVA 232234Z AUTO 25015G20KT 2000 BR BKN011 OVC017 11/09 A2996 RMK AO2 VIS 0800V5000 SLP149 $
EGVA 232239Z AUTO 25015KT 3200 BR SCT011 OVC017 11/09 A2997 RMK AO2 VIS 0800V3200 CIG 011V017 CIG 014 RWY09 SLP153 $
EGVA 232244Z AUTO 25012KT 3600 BR SCT011 OVC017 10/09 A2997 RMK AO2 VIS 2600V4400 CIG 011V017 CIG 014 RWY09 SLP153 $
EGVA 232206Z AUTO 25014KT 2800 HZ OVC014 11/08 A2997 RMK AO2 VIS 2800V4400 SLP153 $
EGVA 232211Z AUTO 25013G19KT 6000 HZ BKN011 OVC017 11/08 A2997 RMK AO2 SLP153 $
EGVA 232249Z AUTO 25012KT 2800 BR BKN010 OVC017 10/09 A2997 RMK AO2 VIS 2600V4400 CIG 010V017 SLP153 $
EGVA 232254Z AUTO 24013KT 6000 BR BKN010 OVC017 10/09 A2996 RMK AO2 CIG 010V017SLP150 $
EGVA 232126Z AUTO 24010KT 6000 HZ OVC016 11/07 A2997 RMK AO2 SLP153 $
EGVA 232141Z AUTO 24013KT 8000 HZ OVC014 11/07 A2997 RMK AO2 SLP153 $
EGVA 232106Z AUTO 24010KT 3200 HZ OVC018 11/07 A2998 RMK AO2 VIS 2000V4400 SLP156 $
EGVA 232111Z AUTO 25011KT 8000 HZ OVC018 11/07 A2998 RMK AO2 SLP156 $
EGVA 232025Z AUTO 23012KT 1600 R27/1000VP1500 HZ OVC025 11/07 A2997 RMK AO2 VIS1600V8000 SLP153 $
EGVA 232027Z AUTO 23013KT 2000 HZ OVC025 11/07 A2997 RMK AO2 VIS 1600V8000 SLP153 $
EGVA 232040Z AUTO 24015KT 2200 HZ OVC022 11/07 A2998 RMK AO2 VIS 1400V2400 SLP156 $
EGVA 232031Z AUTO 24014G18KT 1600 R27/1100VP1500 HZ OVC024 11/07 A2998 RMK AO2 VIS 1600V2600 SLP156 $
EGVA 232021Z AUTO 23009KT 4400 HZ OVC025 11/07 A2998 RMK AO2 VIS 2600V9000 SLP156 $
EGVA 232045Z AUTO 24012KT 2600 HZ OVC022 11/07 A2998 RMK AO2 VIS 1400V2600 SLP156 $
EGVA 232050Z AUTO 24013KT 1800 HZ OVC022 11/07 A2998 RMK AO2 VIS 1600V2800 CIG 021 RWY09 SLP156 $
EGVA 232051Z AUTO 24011G18KT 1600 R27/0800VP1500 HZ OVC022 11/07 A2998 RMK AO2 VIS 1400V2800 CIG 021 RWY09 SLP156 $
EGVA 232053Z AUTO 24010G18KT 3000 HZ OVC022 11/07 A2998 RMK AO2 VIS 1400V3200 CIG 021 RWY09 SLP156 $